C.s.rainbow — 3EFB2 — position and weather

sailwx.info

Track history (hours):
 
Tides and Currents Weather Stations Pressure Air Temp Water Temp Dewpoint Dewpoint Depression Visibility Wind Speed Wind Dir Waves Ship Positions

C.s.rainbow

Last reported at 2014-Sep-26 20:31 UTC. Time now 2014-Oct-23 08:48 UTC.
Position N 30°48' E 123°20'.
Warning: this ship's position is 26 days out of date.

Length 190 m; draft 10.5 m.

Type: Cargo ship. MMSI: 371986000.

Date/timePositionNaut miles runAvg speedWind from/ knotsBaromVisibWave heightAir tempDewpointWater temp
2014-Sep-26 20:31N 30°48' E 123°20'1413.8
2014-Sep-26 19:32N 30°52' E 123°05'2512.5
2014-Sep-26 17:31N 31°06' E 122°41'1212.1
2014-Sep-26 16:33N 31°06' E 122°27'9 9.3
2014-Sep-26 15:33N 31°07' E 122°16'9 8.9
2014-Sep-26 14:30N 31°13' E 122°07'9 9.3
2014-Sep-26 13:33N 31°15' E 121°58'1312.8
2014-Sep-26 12:33N 31°19' E 121°43'1211.8
2014-Sep-26 11:33N 31°25' E 121°31'8 7.9
2014-Sep-26 10:33N 31°30' E 121°24'1212.4
2014-Sep-26 09:33N 31°39' E 121°14'1313.1
2014-Sep-26 08:33N 31°46' E 121°01'4 3.1
2014-Sep-26 07:09N 31°49' E 120°57'0 0.0
2014-Sep-26 06:12N 31°49' E 120°57'0 0.1
2014-Sep-26 05:33N 31°49' E 120°57'0 0.0
2014-Sep-26 04:24N 31°49' E 120°57'0 0.1
2014-Sep-26 03:33N 31°49' E 120°57'0 0.0
2014-Sep-26 02:33N 31°49' E 120°57'0 0.0
2014-Sep-26 01:33N 31°49' E 120°57'0 0.0
2014-Sep-26 00:34N 31°49' E 120°57'0 0.0
2014-Sep-25 23:34N 31°49' E 120°57'0 0.0
2014-Sep-25 22:32N 31°49' E 120°57'0 0.0
2014-Sep-25 21:33N 31°49' E 120°57'0 0.0
2014-Sep-25 20:32N 31°49' E 120°57'0 0.0
2014-Sep-25 19:33N 31°49' E 120°57'0 0.0
2014-Sep-25 18:31N 31°49' E 120°57'0 0.0
2014-Sep-25 17:32N 31°49' E 120°57'0 0.0
2014-Sep-25 16:33N 31°49' E 120°57'0 0.0
2014-Sep-25 15:33N 31°49' E 120°57'0 0.0
2014-Sep-25 14:33N 31°49' E 120°57'0 0.0
2014-Sep-25 13:28N 31°49' E 120°57'0 0.0
2014-Sep-25 12:32N 31°49' E 120°57'0 0.0
2014-Sep-25 11:31N 31°49' E 120°57'0 0.0
2014-Sep-25 10:29N 31°49' E 120°57'0 0.0
2014-Sep-25 09:33N 31°49' E 120°57'0 0.0
2014-Sep-25 08:32N 31°49' E 120°57'0 0.0
2014-Sep-25 07:29N 31°49' E 120°57'0 0.0
2014-Sep-25 06:33N 31°49' E 120°57'0 0.0
2014-Sep-25 05:30N 31°49' E 120°57'0 0.1
2014-Sep-25 04:33N 31°49' E 120°57'0 0.1
2014-Sep-25 03:31N 31°49' E 120°57'0 0.0
2014-Sep-25 02:34N 31°49' E 120°57'0 0.0
2014-Sep-25 00:31N 31°49' E 120°57'0 0.0
2014-Sep-24 23:31N 31°49' E 120°57'0 0.0
2014-Sep-24 22:33N 31°49' E 120°57'0 0.0
2014-Sep-24 21:33N 31°49' E 120°57'0 0.0
2014-Sep-24 20:32N 31°49' E 120°57'0 0.0
2014-Sep-24 19:33N 31°49' E 120°57'0 0.0
2014-Sep-24 18:33N 31°49' E 120°57'0 0.0
2014-Sep-24 17:15N 31°49' E 120°57'0 0.1
2014-Sep-24 16:32N 31°49' E 120°57'0 0.0
2014-Sep-24 15:27N 31°49' E 120°57'0 0.0
2014-Sep-24 14:33N 31°49' E 120°57'0 0.0
2014-Sep-24 13:32N 31°49' E 120°57'0 0.0
2014-Sep-24 12:33N 31°49' E 120°57'0 0.0
2014-Sep-24 11:33N 31°49' E 120°57'0 0.0
2014-Sep-24 10:32N 31°49' E 120°57'8 8.3
2014-Sep-24 09:32N 31°45' E 121°06'1111.3
2014-Sep-24 08:33N 31°38' E 121°16'1211.9
2014-Sep-24 07:33N 31°30' E 121°26'1010.2
2014-Sep-24 06:32N 31°23' E 121°35'1110.8
2014-Sep-24 05:33N 31°17' E 121°45'  
Track history (hours):
 
Tides and Currents Weather Stations Pressure Air Temp Water Temp Dewpoint Dewpoint Depression Visibility Wind Speed Wind Dir Waves Ship Positions

C.s.rainbow

Last reported at 2014-Sep-26 20:31 UTC. Time now 2014-Oct-23 08:48 UTC.
Position N 30°48' E 123°20'.
Warning: this ship's position is 26 days out of date.

Length 190 m; draft 10.5 m.

Type: Cargo ship. MMSI: 371986000.

Date/timePositionNaut miles runAvg speedWind from/ knotsBaromVisibWave heightAir tempDewpointWater temp
2014-Sep-26 20:31N 30°48' E 123°20'1413.8
2014-Sep-26 19:32N 30°52' E 123°05'2512.5
2014-Sep-26 17:31N 31°06' E 122°41'1212.1
2014-Sep-26 16:33N 31°06' E 122°27'9 9.3
2014-Sep-26 15:33N 31°07' E 122°16'9 8.9
2014-Sep-26 14:30N 31°13' E 122°07'9 9.3
2014-Sep-26 13:33N 31°15' E 121°58'1312.8
2014-Sep-26 12:33N 31°19' E 121°43'1211.8
2014-Sep-26 11:33N 31°25' E 121°31'8 7.9
2014-Sep-26 10:33N 31°30' E 121°24'1212.4
2014-Sep-26 09:33N 31°39' E 121°14'1313.1
2014-Sep-26 08:33N 31°46' E 121°01'4 3.1
2014-Sep-26 07:09N 31°49' E 120°57'0 0.0
2014-Sep-26 06:12N 31°49' E 120°57'0 0.1
2014-Sep-26 05:33N 31°49' E 120°57'0 0.0
2014-Sep-26 04:24N 31°49' E 120°57'0 0.1
2014-Sep-26 03:33N 31°49' E 120°57'0 0.0
2014-Sep-26 02:33N 31°49' E 120°57'0 0.0
2014-Sep-26 01:33N 31°49' E 120°57'0 0.0
2014-Sep-26 00:34N 31°49' E 120°57'0 0.0
2014-Sep-25 23:34N 31°49' E 120°57'0 0.0
2014-Sep-25 22:32N 31°49' E 120°57'0 0.0
2014-Sep-25 21:33N 31°49' E 120°57'0 0.0
2014-Sep-25 20:32N 31°49' E 120°57'0 0.0
2014-Sep-25 19:33N 31°49' E 120°57'0 0.0
2014-Sep-25 18:31N 31°49' E 120°57'0 0.0
2014-Sep-25 17:32N 31°49' E 120°57'0 0.0
2014-Sep-25 16:33N 31°49' E 120°57'0 0.0
2014-Sep-25 15:33N 31°49' E 120°57'0 0.0
2014-Sep-25 14:33N 31°49' E 120°57'0 0.0
2014-Sep-25 13:28N 31°49' E 120°57'0 0.0
2014-Sep-25 12:32N 31°49' E 120°57'0 0.0
2014-Sep-25 11:31N 31°49' E 120°57'0 0.0
2014-Sep-25 10:29N 31°49' E 120°57'0 0.0
2014-Sep-25 09:33N 31°49' E 120°57'0 0.0
2014-Sep-25 08:32N 31°49' E 120°57'0 0.0
2014-Sep-25 07:29N 31°49' E 120°57'0 0.0
2014-Sep-25 06:33N 31°49' E 120°57'0 0.0
2014-Sep-25 05:30N 31°49' E 120°57'0 0.1
2014-Sep-25 04:33N 31°49' E 120°57'0 0.1
2014-Sep-25 03:31N 31°49' E 120°57'0 0.0
2014-Sep-25 02:34N 31°49' E 120°57'0 0.0
2014-Sep-25 00:31N 31°49' E 120°57'0 0.0
2014-Sep-24 23:31N 31°49' E 120°57'0 0.0
2014-Sep-24 22:33N 31°49' E 120°57'0 0.0
2014-Sep-24 21:33N 31°49' E 120°57'0 0.0
2014-Sep-24 20:32N 31°49' E 120°57'0 0.0
2014-Sep-24 19:33N 31°49' E 120°57'0 0.0
2014-Sep-24 18:33N 31°49' E 120°57'0 0.0
2014-Sep-24 17:15N 31°49' E 120°57'0 0.1
2014-Sep-24 16:32N 31°49' E 120°57'0 0.0
2014-Sep-24 15:27N 31°49' E 120°57'0 0.0
2014-Sep-24 14:33N 31°49' E 120°57'0 0.0
2014-Sep-24 13:32N 31°49' E 120°57'0 0.0
2014-Sep-24 12:33N 31°49' E 120°57'0 0.0
2014-Sep-24 11:33N 31°49' E 120°57'0 0.0
2014-Sep-24 10:32N 31°49' E 120°57'8 8.3
2014-Sep-24 09:32N 31°45' E 121°06'1111.3
2014-Sep-24 08:33N 31°38' E 121°16'1211.9
2014-Sep-24 07:33N 31°30' E 121°26'1010.2
2014-Sep-24 06:32N 31°23' E 121°35'1110.8
2014-Sep-24 05:33N 31°17' E 121°45'  

Dump ship's entire track history